Time;durP1;ratioP1;P1;durP2;ratioP2;P2;SDS_P1;SDS_P2;PMS_P1;PMS_P2;Temp;Humidity;BMP_temperature;BMP_pressure;BME280_temperature;BME280_humidity;BME280_pressure;Samples;Min_cycle;Max_cycle;Signal;HPM_P1;HPM_P2
2024/01/23 00:01:10;;;;;;;;;6.00;3.00;;;;;7.58;77.92;101491.94;4949451;28;10772;-68
2024/01/23 00:03:37;;;;;;;;;3.50;3.50;;;;;7.59;78.58;101488.25;4947927;28;10846;-69
2024/01/23 00:06:04;;;;;;;;;1.50;1.00;;;;;7.60;77.77;101495.28;4969293;28;10856;-66
2024/01/23 00:08:31;;;;;;;;;1.50;1.50;;;;;7.61;78.00;101501.47;4970478;28;10702;-66
2024/01/23 00:11:02;;;;;;;;;1.25;1.00;;;;;7.56;77.30;101507.31;4974331;28;10830;-69
2024/01/23 00:13:28;;;;;;;;;8.00;5.00;;;;;7.53;77.01;101498.75;4973493;28;10799;-67
2024/01/23 00:15:55;;;;;;;;;6.00;6.00;;;;;7.51;76.94;101515.00;4973811;28;10875;-66
2024/01/23 00:18:22;;;;;;;;;5.00;3.25;;;;;7.56;76.63;101525.22;4971697;28;11005;-70
2024/01/23 00:20:48;;;;;;;;;1.50;1.25;;;;;7.52;76.70;101530.06;4973301;28;10722;-67
2024/01/23 00:23:15;;;;;;;;;4.50;1.75;;;;;7.51;76.55;101519.50;4973165;28;10784;-65
2024/01/23 00:25:42;;;;;;;;;3.00;1.50;;;;;7.46;76.56;101527.19;4966488;28;10934;-66
2024/01/23 00:28:09;;;;;;;;;2.25;1.75;;;;;7.39;76.21;101533.16;4973646;28;10865;-68
2024/01/23 00:30:37;;;;;;;;;4.50;2.75;;;;;7.48;76.57;101527.84;4974074;28;10949;-69
2024/01/23 00:33:03;;;;;;;;;1.00;0.25;;;;;7.51;75.70;101543.63;4966132;28;10924;-66
2024/01/23 00:35:30;;;;;;;;;2.25;1.00;;;;;7.60;75.07;101537.31;4970174;28;10896;-69
2024/01/23 00:37:57;;;;;;;;;4.00;2.75;;;;;7.51;74.76;101552.50;4973508;28;11508;-67
2024/01/23 00:40:23;;;;;;;;;0.75;0.75;;;;;7.44;75.82;101563.00;4973940;28;10780;-66
2024/01/23 00:42:50;;;;;;;;;6.75;2.25;;;;;7.44;75.57;101552.28;4970356;28;10780;-66
2024/01/23 00:45:17;;;;;;;;;5.00;5.00;;;;;7.43;75.49;101572.03;4971731;28;10800;-66
2024/01/23 00:47:44;;;;;;;;;3.00;3.00;;;;;7.40;75.23;101582.22;4973554;28;10724;-66
2024/01/23 00:50:10;;;;;;;;;4.75;3.50;;;;;7.35;75.16;101566.59;4955497;28;10767;-66
2024/01/23 00:52:37;;;;;;;;;3.25;1.00;;;;;7.31;74.68;101585.81;4951742;28;10978;-68
2024/01/23 00:55:04;;;;;;;;;3.25;2.00;;;;;7.28;74.29;101583.44;4949512;28;10706;-66
2024/01/23 00:57:32;;;;;;;;;2.00;1.75;;;;;7.30;74.10;101587.66;4970082;28;11733;-66
2024/01/23 01:00:00;;;;;;;;;2.00;0.00;;;;;7.32;74.11;101591.00;4973686;28;10964;-65
2024/01/23 01:02:28;;;;;;;;;2.00;1.25;;;;;7.29;74.47;101603.88;4967314;28;11317;-66
2024/01/23 01:04:54;;;;;;;;;2.00;1.00;;;;;7.30;74.35;101589.50;4972506;28;10768;-66
2024/01/23 01:07:21;;;;;;;;;4.50;3.25;;;;;7.38;73.97;101585.06;4964324;28;10764;-68
2024/01/23 01:09:48;;;;;;;;;5.75;2.00;;;;;7.41;74.18;101597.28;4972949;28;10867;-66
2024/01/23 01:12:15;;;;;;;;;4.50;1.25;;;;;7.30;73.86;101590.34;4967768;28;10787;-66
2024/01/23 01:14:42;;;;;;;;;3.75;1.25;;;;;7.35;73.95;101600.59;4970847;28;10683;-67
2024/01/23 01:17:08;;;;;;;;;2.00;2.00;;;;;7.33;73.93;101616.81;4973243;28;10938;-66
2024/01/23 01:19:35;;;;;;;;;2.25;1.00;;;;;7.32;74.27;101615.13;4955050;28;12041;-66
2024/01/23 01:22:03;;;;;;;;;1.00;1.00;;;;;7.26;74.40;101628.31;4964462;28;10901;-65
2024/01/23 01:24:29;;;;;;;;;2.00;2.00;;;;;7.26;73.66;101626.47;4972220;28;10691;-67
2024/01/23 01:26:56;;;;;;;;;5.75;2.00;;;;;7.22;73.61;101622.41;4955790;28;10872;-66
2024/01/23 01:29:23;;;;;;;;;1.00;1.00;;;;;7.18;73.93;101619.19;4960578;28;10898;-68
2024/01/23 01:31:49;;;;;;;;;3.75;1.00;;;;;7.16;73.63;101621.16;4968618;28;10913;-68
2024/01/23 01:34:16;;;;;;;;;5.50;2.00;;;;;7.12;73.12;101618.94;4964759;28;10845;-68
2024/01/23 01:36:43;;;;;;;;;4.00;2.00;;;;;7.14;73.10;101609.78;4936478;28;11659;-67
2024/01/23 01:39:12;;;;;;;;;4.75;2.00;;;;;7.16;73.82;101615.81;4961863;28;11020;-67
2024/01/23 01:41:38;;;;;;;;;2.00;0.50;;;;;7.17;73.77;101622.88;4973025;28;10659;-66
2024/01/23 01:44:05;;;;;;;;;2.00;2.00;;;;;7.19;74.30;101641.44;4965939;28;10692;-66
2024/01/23 01:46:32;;;;;;;;;1.25;1.25;;;;;7.22;73.87;101646.50;4971128;28;10741;-66
2024/01/23 01:48:58;;;;;;;;;2.00;1.75;;;;;7.20;74.06;101645.81;4954905;28;10860;-69
2024/01/23 01:51:28;;;;;;;;;5.00;2.00;;;;;7.13;74.46;101652.75;4949197;28;10765;-65
2024/01/23 01:53:56;;;;;;;;;4.50;1.75;;;;;7.10;74.73;101663.78;4971797;28;10989;-67
2024/01/23 01:56:23;;;;;;;;;6.75;1.75;;;;;7.12;74.18;101653.75;4964287;28;10754;-67
2024/01/23 01:58:50;;;;;;;;;5.00;2.25;;;;;7.08;74.80;101660.41;4958382;28;11083;-65
2024/01/23 02:01:17;;;;;;;;;4.00;4.00;;;;;7.11;74.05;101679.69;4967888;28;10807;-67
2024/01/23 02:03:44;;;;;;;;;6.75;5.00;;;;;7.09;74.98;101686.16;4951337;28;10758;-66
2024/01/23 02:06:11;;;;;;;;;2.50;2.00;;;;;7.15;75.05;101694.47;4965723;28;11097;-69
2024/01/23 02:08:39;;;;;;;;;2.00;1.75;;;;;7.23;74.81;101701.75;4971904;28;10714;-65
2024/01/23 02:11:05;;;;;;;;;5.50;2.25;;;;;7.18;75.08;101712.91;4972485;28;10757;-67
2024/01/23 02:13:32;;;;;;;;;1.00;1.00;;;;;7.16;75.68;101704.16;4968407;28;10926;-66
2024/01/23 02:15:59;;;;;;;;;1.00;1.00;;;;;7.21;74.96;101705.53;4969193;28;10922;-66
2024/01/23 02:18:26;;;;;;;;;3.00;1.75;;;;;7.30;74.76;101724.25;4971810;28;11660;-67
2024/01/23 02:20:52;;;;;;;;;4.00;4.00;;;;;7.39;74.48;101722.50;4955413;28;10778;-66
2024/01/23 02:23:19;;;;;;;;;1.75;1.00;;;;;7.36;75.21;101725.47;4970615;28;10949;-70
2024/01/23 02:25:46;;;;;;;;;5.00;2.00;;;;;7.27;75.46;101745.97;4966542;28;10800;-66
2024/01/23 02:28:15;;;;;;;;;5.75;2.50;;;;;7.26;75.37;101732.75;4967609;28;10844;-66
2024/01/23 02:30:42;;;;;;;;;5.75;4.00;;;;;7.37;75.88;101732.50;4964095;28;11555;-66
2024/01/23 02:33:09;;;;;;;;;1.50;1.50;;;;;7.28;75.55;101733.41;4969939;28;10887;-67
2024/01/23 02:35:37;;;;;;;;;2.25;1.25;;;;;7.24;76.26;101748.09;4967872;28;11634;-69
2024/01/23 02:38:04;;;;;;;;;2.00;2.00;;;;;7.18;75.60;101747.72;4970983;28;10701;-66
2024/01/23 02:40:30;;;;;;;;;3.50;1.00;;;;;7.16;75.81;101746.16;4971092;28;10840;-66
2024/01/23 02:42:57;;;;;;;;;1.50;1.00;;;;;7.19;75.76;101749.38;4969421;28;10872;-66
2024/01/23 02:45:24;;;;;;;;;2.00;1.50;;;;;7.21;76.02;101753.75;4953687;28;10961;-66
2024/01/23 02:47:51;;;;;;;;;1.25;1.25;;;;;7.14;76.15;101765.06;4968460;28;11600;-66
2024/01/23 02:50:18;;;;;;;;;7.25;1.75;;;;;7.11;75.84;101761.84;4971348;28;10909;-66
2024/01/23 02:52:45;;;;;;;;;6.00;1.75;;;;;7.12;76.03;101764.38;4952556;28;10985;-72
2024/01/23 02:55:11;;;;;;;;;6.00;2.00;;;;;7.14;75.40;101775.78;4967410;28;11514;-66
2024/01/23 02:57:38;;;;;;;;;2.00;1.00;;;;;7.12;75.67;101780.44;4970381;28;10914;-67
2024/01/23 03:00:05;;;;;;;;;4.50;2.00;;;;;7.15;76.22;101796.19;4953715;28;11475;-67
2024/01/23 03:02:32;;;;;;;;;4.00;2.25;;;;;7.10;75.75;101790.47;4970906;28;10853;-66
2024/01/23 03:04:59;;;;;;;;;3.50;3.50;;;;;7.10;76.34;101803.84;4962190;28;10862;-70
2024/01/23 03:07:25;;;;;;;;;2.25;2.25;;;;;7.14;76.54;101809.75;4970483;28;10838;-67
2024/01/23 03:09:52;;;;;;;;;1.75;1.75;;;;;7.09;75.75;101794.13;4938081;28;10853;-67
2024/01/23 03:12:22;;;;;;;;;3.50;1.00;;;;;7.03;76.54;101809.94;4971013;28;10743;-67
2024/01/23 03:14:50;;;;;;;;;1.75;1.00;;;;;7.00;76.31;101811.06;4950538;28;10916;-70
2024/01/23 03:17:17;;;;;;;;;4.25;3.50;;;;;7.03;76.21;101818.81;4966202;28;10854;-66
2024/01/23 03:19:44;;;;;;;;;5.75;3.75;;;;;7.02;76.31;101822.47;4971189;28;10907;-67
2024/01/23 03:22:12;;;;;;;;;1.50;1.00;;;;;7.13;76.48;101814.25;4971511;28;10987;-67
2024/01/23 03:24:39;;;;;;;;;3.00;2.50;;;;;7.08;75.75;101821.88;4966403;28;10775;-67
2024/01/23 03:27:06;;;;;;;;;3.00;2.75;;;;;7.07;76.07;101827.38;4966141;28;11747;-66
2024/01/23 03:29:40;;;;;;;;;4.75;2.00;;;;;7.01;76.56;101839.53;4953835;28;10989;-67
2024/01/23 03:32:07;;;;;;;;;2.75;2.75;;;;;7.04;76.38;101849.09;4970007;28;11155;-67
2024/01/23 03:34:35;;;;;;;;;7.25;4.00;;;;;7.07;76.49;101862.19;4968401;28;11067;-67
2024/01/23 03:37:02;;;;;;;;;4.75;2.00;;;;;7.06;76.23;101855.16;4968395;28;10895;-68
2024/01/23 03:39:29;;;;;;;;;6.50;1.75;;;;;7.00;76.55;101863.75;4961964;28;11066;-65
2024/01/23 03:41:56;;;;;;;;;5.00;3.00;;;;;6.98;76.43;101866.59;4957295;28;11612;-67
2024/01/23 03:44:24;;;;;;;;;5.50;2.00;;;;;6.91;77.25;101869.00;4988091;23;11041;-67
2024/01/23 03:46:52;;;;;;;;;2.50;2.00;;;;;6.95;76.28;101874.91;4968247;28;10881;-67
2024/01/23 03:49:19;;;;;;;;;1.25;1.00;;;;;6.92;76.46;101884.06;4960113;28;10929;-66
2024/01/23 03:51:46;;;;;;;;;3.75;1.50;;;;;7.03;76.62;101892.91;4973541;28;10974;-67
2024/01/23 03:54:13;;;;;;;;;2.00;1.50;;;;;7.01;76.50;101890.41;4970262;28;10978;-67
2024/01/23 03:56:40;;;;;;;;;9.25;2.00;;;;;6.99;76.32;101897.72;4922445;28;10953;-66
2024/01/23 03:59:07;;;;;;;;;4.25;2.75;;;;;6.99;76.41;101923.66;4952556;28;11161;-66
2024/01/23 04:01:34;;;;;;;;;8.00;4.00;;;;;6.91;76.75;101906.47;4952304;28;11125;-67
2024/01/23 04:04:02;;;;;;;;;1.75;1.00;;;;;7.01;76.70;101917.16;4952026;28;11110;-67
2024/01/23 04:06:28;;;;;;;;;5.75;2.00;;;;;7.05;76.20;101920.38;4954772;28;10879;-67
2024/01/23 04:08:55;;;;;;;;;6.50;3.50;;;;;7.04;76.53;101926.72;4954786;28;11774;-67
2024/01/23 04:11:22;;;;;;;;;2.00;1.25;;;;;7.10;76.37;101937.72;4936699;28;11085;-67
2024/01/23 04:13:48;;;;;;;;;7.50;5.75;;;;;7.10;76.28;101936.88;4941718;28;11009;-66
2024/01/23 04:16:15;;;;;;;;;8.25;5.25;;;;;7.04;76.40;101950.81;4934696;28;11011;-67
2024/01/23 04:18:42;;;;;;;;;1.75;1.00;;;;;7.07;76.66;101958.56;4954361;28;11024;-66
2024/01/23 04:21:09;;;;;;;;;5.50;4.25;;;;;7.08;76.99;101954.91;4949572;28;10925;-66
2024/01/23 04:23:35;;;;;;;;;2.00;1.00;;;;;7.09;76.88;101964.63;4951830;28;10932;-66
2024/01/23 04:26:06;;;;;;;;;5.50;4.75;;;;;7.07;76.84;101970.13;4952831;28;11921;-66
2024/01/23 04:28:34;;;;;;;;;3.00;2.00;;;;;7.09;76.81;101968.16;4942538;28;11064;-66
2024/01/23 04:31:00;;;;;;;;;2.00;1.50;;;;;7.07;76.97;101963.94;4955007;28;11209;-67
2024/01/23 04:33:27;;;;;;;;;2.00;2.00;;;;;7.12;76.41;101983.06;4954948;28;10918;-66
2024/01/23 04:35:54;;;;;;;;;4.75;3.00;;;;;7.11;76.37;101982.22;4952714;28;11098;-66
2024/01/23 04:38:20;;;;;;;;;6.25;4.00;;;;;7.16;76.88;101984.47;4937706;28;10946;-66
2024/01/23 04:40:47;;;;;;;;;5.00;4.50;;;;;7.11;76.62;101997.47;4955028;28;10984;-67
2024/01/23 04:43:13;;;;;;;;;1.50;1.50;;;;;7.10;76.08;101998.47;4954835;28;10923;-66
2024/01/23 04:45:40;;;;;;;;;7.25;2.50;;;;;7.04;76.87;102007.88;4954130;28;10983;-65
2024/01/23 04:48:06;;;;;;;;;4.25;1.75;;;;;7.07;76.60;102004.09;4952431;28;11023;-67
2024/01/23 04:50:33;;;;;;;;;3.25;1.00;;;;;7.10;77.05;102011.84;4954076;28;11110;-66
2024/01/23 04:53:00;;;;;;;;;5.50;2.75;;;;;7.04;76.30;102018.59;4953071;28;11140;-66
2024/01/23 04:55:26;;;;;;;;;5.50;4.00;;;;;6.94;76.23;102026.63;4949249;28;10932;-67
2024/01/23 04:57:53;;;;;;;;;2.00;2.00;;;;;6.93;77.33;102035.66;4953555;28;11029;-66
2024/01/23 05:00:20;;;;;;;;;6.25;3.00;;;;;6.91;77.44;102037.63;4954722;28;10925;-67
2024/01/23 05:02:46;;;;;;;;;8.25;5.25;;;;;6.86;77.52;102041.72;4954141;28;11539;-66
2024/01/23 05:05:13;;;;;;;;;5.50;1.75;;;;;6.88;77.41;102053.94;4944453;28;11060;-67
2024/01/23 05:07:39;;;;;;;;;1.50;1.50;;;;;6.95;77.12;102054.25;4953381;28;11041;-67
2024/01/23 05:10:06;;;;;;;;;2.75;1.50;;;;;6.99;77.47;102057.50;4943549;28;11109;-66
2024/01/23 05:12:33;;;;;;;;;1.25;1.00;;;;;7.00;76.94;102053.81;4952681;28;10913;-67
2024/01/23 05:15:01;;;;;;;;;6.00;3.00;;;;;6.99;76.92;102057.50;4953583;28;10918;-67
2024/01/23 05:17:27;;;;;;;;;3.50;1.25;;;;;7.03;77.03;102056.22;4920721;28;11944;-67
2024/01/23 05:19:54;;;;;;;;;7.50;4.25;;;;;6.94;77.32;102072.16;4935837;28;11059;-66
2024/01/23 05:22:21;;;;;;;;;4.50;4.50;;;;;6.96;77.02;102074.66;4950630;28;10881;-66
2024/01/23 05:24:47;;;;;;;;;6.75;4.50;;;;;7.00;76.67;102088.63;4935170;28;11015;-67
2024/01/23 05:27:15;;;;;;;;;2.50;2.50;;;;;7.01;77.07;102093.88;4944057;28;10993;-67
2024/01/23 05:29:41;;;;;;;;;1.00;1.00;;;;;7.02;77.53;102100.06;4953649;28;11018;-66
2024/01/23 05:32:08;;;;;;;;;3.75;2.00;;;;;7.07;77.88;102108.50;4946284;28;10952;-66
2024/01/23 05:34:35;;;;;;;;;6.00;5.00;;;;;7.06;77.10;102107.66;4953263;28;11973;-66
2024/01/23 05:37:02;;;;;;;;;4.50;2.75;;;;;6.99;77.99;102105.69;4950928;28;11014;-65
2024/01/23 05:39:29;;;;;;;;;4.75;3.50;;;;;6.91;77.65;102117.94;4953527;28;11161;-65
2024/01/23 05:41:57;;;;;;;;;5.00;3.50;;;;;6.83;78.24;102120.44;4953554;28;11973;-66
2024/01/23 05:44:23;;;;;;;;;6.50;6.00;;;;;6.89;78.25;102111.03;4952716;28;11100;-66
2024/01/23 05:46:50;;;;;;;;;4.75;2.00;;;;;6.89;78.03;102122.59;4951581;28;11056;-66
2024/01/23 05:49:16;;;;;;;;;2.75;2.00;;;;;6.93;77.86;102115.13;4952433;28;11073;-66
2024/01/23 05:51:43;;;;;;;;;2.00;2.00;;;;;6.94;78.14;102109.63;4953194;28;11167;-66
2024/01/23 05:54:10;;;;;;;;;2.00;2.00;;;;;6.93;78.15;102120.47;4951260;28;11021;-67
2024/01/23 05:56:36;;;;;;;;;6.50;1.75;;;;;6.93;78.13;102121.31;4951796;28;10836;-66
2024/01/23 05:59:03;;;;;;;;;4.50;3.25;;;;;6.92;77.74;102135.66;4959511;28;11037;-66
2024/01/23 06:01:33;;;;;;;;;1.50;1.25;;;;;6.91;78.35;102136.66;4950495;28;10992;-66
2024/01/23 06:04:00;;;;;;;;;2.50;2.00;;;;;6.87;78.18;102145.94;4936775;28;11053;-66
2024/01/23 06:06:27;;;;;;;;;7.50;3.25;;;;;6.79;78.59;102136.94;4952280;28;10992;-66
2024/01/23 06:08:53;;;;;;;;;3.50;2.00;;;;;6.74;79.42;102153.41;4952796;28;11099;-66
2024/01/23 06:11:20;;;;;;;;;4.00;1.00;;;;;6.77;78.79;102163.84;4953220;28;11086;-66
2024/01/23 06:13:46;;;;;;;;;4.00;3.00;;;;;6.85;78.86;102177.38;4929192;29;11010;-66
2024/01/23 06:16:13;;;;;;;;;3.50;3.50;;;;;6.87;78.49;102174.56;4916534;28;11184;-66
2024/01/23 06:18:39;;;;;;;;;6.50;5.00;;;;;6.87;78.31;102171.88;4948748;28;11151;-66
2024/01/23 06:21:06;;;;;;;;;6.75;3.75;;;;;6.86;78.32;102181.75;4949246;28;11013;-66
2024/01/23 06:23:33;;;;;;;;;4.00;1.25;;;;;6.87;78.69;102178.06;4952386;28;11031;-68
2024/01/23 06:26:00;;;;;;;;;3.50;1.50;;;;;6.87;78.49;102179.91;4952564;28;10925;-68
2024/01/23 06:28:26;;;;;;;;;2.50;1.50;;;;;6.88;78.48;102184.28;4912469;28;11000;-68
2024/01/23 06:30:53;;;;;;;;;6.25;4.00;;;;;6.75;78.27;102187.19;4946547;28;11088;-66
2024/01/23 06:33:19;;;;;;;;;5.00;2.50;;;;;6.81;78.94;102186.66;4950115;28;11024;-66
2024/01/23 06:35:46;;;;;;;;;3.00;3.00;;;;;6.80;78.90;102184.09;4952859;28;11097;-66
2024/01/23 06:38:13;;;;;;;;;7.00;2.00;;;;;6.81;78.36;102189.34;4947643;28;11029;-66
2024/01/23 06:40:39;;;;;;;;;4.25;2.00;;;;;6.84;79.16;102191.72;4949799;28;11328;-66
2024/01/23 06:43:06;;;;;;;;;4.00;1.00;;;;;6.82;78.73;102184.84;4941295;28;10953;-66
2024/01/23 06:45:33;;;;;;;;;2.50;2.50;;;;;6.69;78.49;102180.56;4926874;28;11089;-66
2024/01/23 06:47:59;;;;;;;;;6.75;2.75;;;;;6.75;79.13;102187.19;4948152;28;11019;-66
2024/01/23 06:50:28;;;;;;;;;1.25;1.00;;;;;6.79;78.88;102190.44;4951582;28;11077;-67
2024/01/23 06:52:55;;;;;;;;;5.25;4.25;;;;;6.78;79.19;102188.75;4952220;28;11002;-66
2024/01/23 06:55:22;;;;;;;;;6.50;4.75;;;;;6.77;79.50;102189.75;4941612;29;11965;-67
2024/01/23 06:57:48;;;;;;;;;3.50;3.00;;;;;6.75;78.61;102197.06;4932578;29;11025;-67
2024/01/23 07:00:15;;;;;;;;;4.75;4.00;;;;;6.79;79.15;102211.84;4932531;29;11124;-67
2024/01/23 07:02:42;;;;;;;;;2.00;2.00;;;;;6.78;79.26;102205.66;4932894;29;11131;-67
2024/01/23 07:05:08;;;;;;;;;2.25;2.00;;;;;6.75;79.09;102213.13;4933225;29;11248;-67
2024/01/23 07:07:35;;;;;;;;;3.75;3.50;;;;;6.76;79.21;102225.50;4932388;29;11001;-66
2024/01/23 07:10:02;;;;;;;;;6.00;3.00;;;;;6.76;79.00;102230.84;4915833;29;11209;-66
2024/01/23 07:12:29;;;;;;;;;3.25;3.25;;;;;6.79;79.30;102231.44;4938033;28;11083;-66
2024/01/23 07:14:56;;;;;;;;;1.75;1.75;;;;;6.82;78.86;102238.34;4937331;29;11286;-66
2024/01/23 07:17:23;;;;;;;;;5.25;2.25;;;;;6.83;79.22;102245.41;4932459;29;11014;-66
2024/01/23 07:19:49;;;;;;;;;3.50;1.75;;;;;6.85;78.61;102260.34;4932543;29;11673;-67
2024/01/23 07:22:16;;;;;;;;;4.25;4.25;;;;;6.84;78.54;102252.44;4932541;29;11101;-67
2024/01/23 07:24:43;;;;;;;;;9.00;4.00;;;;;6.87;78.58;102247.66;4933160;29;11030;-66
2024/01/23 07:27:09;;;;;;;;;8.25;4.75;;;;;6.89;79.24;102255.59;4915315;29;11027;-67
2024/01/23 07:29:38;;;;;;;;;3.75;1.00;;;;;6.92;78.79;102256.13;4936713;29;11089;-67
2024/01/23 07:32:05;;;;;;;;;5.50;2.25;;;;;6.87;78.60;102241.47;4952227;29;11287;-66
2024/01/23 07:34:32;;;;;;;;;6.25;1.00;;;;;6.89;78.56;102234.16;4940515;29;11009;-66
2024/01/23 07:36:58;;;;;;;;;2.75;2.75;;;;;6.91;78.75;102240.22;4915385;29;11153;-67
2024/01/23 07:39:25;;;;;;;;;4.75;4.75;;;;;6.81;78.99;102237.50;4932531;29;11100;-66
2024/01/23 07:41:52;;;;;;;;;6.25;3.25;;;;;6.79;79.26;102249.31;4915750;29;11168;-66
2024/01/23 07:44:19;;;;;;;;;2.00;2.00;;;;;6.78;79.50;102255.66;4941180;29;11168;-67
2024/01/23 07:46:47;;;;;;;;;2.75;2.50;;;;;6.73;79.35;102261.44;4949315;28;11195;-67
2024/01/23 07:49:15;;;;;;;;;5.75;4.50;;;;;6.77;79.53;102273.56;4915468;29;11181;-66
2024/01/23 07:51:46;;;;;;;;;7.00;2.00;;;;;6.77;79.81;102278.06;4915169;29;11253;-66
2024/01/23 07:54:13;;;;;;;;;6.75;5.00;;;;;6.80;79.43;102272.44;4938989;29;11096;-66
2024/01/23 07:56:40;;;;;;;;;5.00;1.00;;;;;6.76;79.80;102282.53;4932454;29;11035;-67
2024/01/23 07:59:06;;;;;;;;;3.50;2.00;;;;;6.81;79.72;102277.66;4932389;29;11183;-68
2024/01/23 08:01:33;;;;;;;;;3.50;2.00;;;;;6.82;79.64;102282.03;4915276;29;10985;-67
2024/01/23 08:04:00;;;;;;;;;1.25;1.25;;;;;6.80;79.52;102283.13;4920783;29;11015;-67
2024/01/23 08:06:27;;;;;;;;;9.75;5.00;;;;;6.82;80.42;102282.03;4934529;29;11124;-67
2024/01/23 08:08:53;;;;;;;;;2.00;2.00;;;;;6.86;79.52;102280.78;4944430;29;11279;-68
2024/01/23 08:11:20;;;;;;;;;2.00;2.00;;;;;6.87;79.18;102282.47;4915587;29;11193;-67
2024/01/23 08:13:49;;;;;;;;;2.50;2.00;;;;;6.88;79.91;102285.97;4915554;29;11116;-68
2024/01/23 08:16:16;;;;;;;;;2.00;1.00;;;;;6.91;80.02;102291.91;4932231;29;11842;-67
2024/01/23 08:18:42;;;;;;;;;5.00;3.50;;;;;6.94;79.33;102297.00;4914852;29;10997;-68
2024/01/23 08:21:09;;;;;;;;;7.50;2.00;;;;;6.96;79.30;102306.72;4932207;29;10995;-68
2024/01/23 08:23:36;;;;;;;;;6.25;2.00;;;;;6.99;79.44;102306.47;4916240;28;11179;-68
2024/01/23 08:26:03;;;;;;;;;5.75;4.00;;;;;7.06;79.34;102308.47;4935571;29;11672;-67
2024/01/23 08:28:41;;;;;;;;;5.50;4.00;;;;;7.13;79.42;102317.66;4935700;29;11092;-67
2024/01/23 08:31:08;;;;;;;;;2.75;2.50;;;;;7.14;78.97;102329.22;4918524;29;11683;-67
2024/01/23 08:33:34;;;;;;;;;5.75;5.25;;;;;7.18;78.70;102331.50;4935199;28;10934;-67
2024/01/23 08:36:03;;;;;;;;;9.25;6.00;;;;;7.10;78.56;102325.97;4935481;29;11017;-67
2024/01/23 08:38:30;;;;;;;;;6.00;4.00;;;;;7.07;78.69;102344.97;4918149;29;11095;-68
2024/01/23 08:40:57;;;;;;;;;3.00;3.00;;;;;7.14;78.64;102356.00;4935374;29;11075;-67
2024/01/23 08:43:24;;;;;;;;;5.00;4.50;;;;;7.09;78.44;102347.50;4918758;28;10935;-67
2024/01/23 08:45:51;;;;;;;;;8.00;4.25;;;;;7.08;78.63;102343.13;4954411;28;10906;-67
2024/01/23 08:48:21;;;;;;;;;6.50;4.25;;;;;7.17;77.85;102345.00;4953824;28;11016;-67
2024/01/23 08:50:50;;;;;;;;;2.00;2.00;;;;;7.24;78.08;102340.78;4937257;28;10994;-67
2024/01/23 08:53:17;;;;;;;;;4.50;2.00;;;;;7.34;77.83;102349.72;4954434;28;10904;-67
2024/01/23 08:55:44;;;;;;;;;5.50;2.00;;;;;7.31;78.02;102362.53;4935884;29;10763;-67
2024/01/23 08:58:10;;;;;;;;;5.50;3.25;;;;;7.32;77.71;102351.69;4934632;29;10910;-67
2024/01/23 09:00:40;;;;;;;;;7.00;5.50;;;;;7.34;77.19;102367.63;4935894;29;10874;-68
2024/01/23 09:03:06;;;;;;;;;5.00;3.50;;;;;7.42;77.17;102371.31;4917600;29;10942;-67
2024/01/23 09:05:33;;;;;;;;;5.75;4.50;;;;;7.47;77.94;102370.06;4934243;28;10903;-66
2024/01/23 09:08:09;;;;;;;;;3.50;2.50;;;;;7.45;77.22;102370.19;4937082;28;10853;-67
2024/01/23 09:10:35;;;;;;;;;2.50;2.00;;;;;7.48;77.53;102369.09;4954837;28;10734;-67
2024/01/23 09:13:02;;;;;;;;;10.50;3.00;;;;;7.56;77.50;102362.03;4953895;28;10701;-67
2024/01/23 09:15:29;;;;;;;;;3.50;3.00;;;;;7.60;78.05;102363.47;4937751;29;11477;-66
2024/01/23 09:17:56;;;;;;;;;4.00;2.50;;;;;7.60;77.39;102366.16;4935487;29;10706;-67
2024/01/23 09:20:22;;;;;;;;;3.00;2.00;;;;;7.60;77.22;102368.00;4934809;29;10947;-67
2024/01/23 09:22:50;;;;;;;;;5.25;3.00;;;;;7.64;77.44;102359.53;4902139;29;10876;-67
2024/01/23 09:25:20;;;;;;;;;2.50;2.50;;;;;7.75;77.17;102369.28;4924259;29;10787;-67
2024/01/23 09:27:48;;;;;;;;;5.75;1.00;;;;;7.80;77.25;102367.03;4917378;29;10808;-68
2024/01/23 09:30:19;;;;;;;;;5.75;4.00;;;;;7.85;77.45;102377.34;4934604;29;10876;-67
2024/01/23 09:32:52;;;;;;;;;5.75;5.25;;;;;7.82;77.66;102365.09;4934348;29;10856;-67
2024/01/23 09:35:19;;;;;;;;;8.00;2.50;;;;;7.83;76.82;102369.44;4919914;29;10809;-67
2024/01/23 09:37:45;;;;;;;;;1.25;1.25;;;;;7.74;77.21;102364.94;4917130;29;11776;-67
2024/01/23 09:40:14;;;;;;;;;5.50;4.00;;;;;7.72;77.22;102366.88;4933031;29;10874;-67
2024/01/23 09:42:40;;;;;;;;;5.00;2.00;;;;;7.79;78.03;102378.75;4917760;29;10901;-67
2024/01/23 09:45:15;;;;;;;;;5.75;3.75;;;;;7.84;77.39;102386.38;4914365;29;10923;-67
2024/01/23 09:47:43;;;;;;;;;2.00;1.25;;;;;7.76;78.03;102391.59;4914864;29;10881;-68
2024/01/23 09:50:13;;;;;;;;;6.25;3.50;;;;;7.73;77.88;102395.38;4920601;29;10785;-67
2024/01/23 09:52:43;;;;;;;;;2.50;1.00;;;;;7.80;78.33;102401.88;4926724;29;10863;-70
2024/01/23 09:55:10;;;;;;;;;5.75;2.50;;;;;7.84;78.51;102415.88;4933935;29;10857;-68
2024/01/23 09:57:42;;;;;;;;;3.00;3.00;;;;;7.81;77.99;102403.56;4932827;29;10711;-67
2024/01/23 10:00:13;;;;;;;;;5.25;3.00;;;;;7.73;78.42;102408.78;4932416;29;10911;-67
2024/01/23 10:02:41;;;;;;;;;7.00;4.00;;;;;7.78;77.88;102397.63;4927650;29;11712;-68
2024/01/23 10:05:09;;;;;;;;;11.25;4.75;;;;;7.81;78.27;102390.16;4913896;29;10900;-67
2024/01/23 10:07:37;;;;;;;;;5.25;2.00;;;;;7.83;78.11;102374.81;4914186;29;10831;-70
2024/01/23 10:10:15;;;;;;;;;7.50;3.50;;;;;7.78;77.58;102373.50;4914835;29;10954;-67
2024/01/23 10:12:45;;;;;;;;;6.50;2.75;;;;;7.72;78.20;102366.88;4920700;29;11029;-67
2024/01/23 10:15:16;;;;;;;;;2.75;2.75;;;;;7.75;78.24;102365.78;4934917;29;11098;-67
2024/01/23 10:17:44;;;;;;;;;5.75;5.75;;;;;7.81;78.16;102368.72;4914241;29;11051;-67
2024/01/23 10:20:11;;;;;;;;;8.75;3.50;;;;;7.85;77.98;102364.78;4915469;29;11048;-67
2024/01/23 10:22:38;;;;;;;;;5.00;3.25;;;;;7.92;78.43;102378.50;4919830;29;10918;-67
2024/01/23 10:25:13;;;;;;;;;2.25;2.25;;;;;7.96;78.29;102376.38;4932000;29;11047;-67
2024/01/23 10:27:41;;;;;;;;;5.00;2.25;;;;;8.07;77.57;102395.03;4932291;29;11018;-68
2024/01/23 10:30:08;;;;;;;;;5.25;3.00;;;;;8.08;77.40;102380.63;4933896;29;11088;-67
2024/01/23 10:32:36;;;;;;;;;8.50;3.00;;;;;8.17;77.41;102395.88;4927604;29;11088;-67
2024/01/23 10:35:04;;;;;;;;;2.25;1.25;;;;;8.13;77.01;102387.25;4913447;29;10791;-67
2024/01/23 10:37:30;;;;;;;;;2.00;1.50;;;;;8.09;77.37;102380.47;4914266;29;10904;-67
2024/01/23 10:39:59;;;;;;;;;1.00;1.00;;;;;8.12;77.42;102374.84;4914347;29;10739;-67
2024/01/23 10:42:26;;;;;;;;;4.75;3.00;;;;;8.05;77.76;102373.69;4915935;29;10712;-67
2024/01/23 10:44:54;;;;;;;;;2.25;2.25;;;;;7.96;77.88;102374.53;4912884;29;10727;-67
2024/01/23 10:47:21;;;;;;;;;10.50;8.00;;;;;7.98;77.79;102375.25;4913041;29;10715;-67
2024/01/23 10:49:47;;;;;;;;;9.50;5.50;;;;;7.96;78.07;102373.69;4897354;29;10872;-66
2024/01/23 10:52:18;;;;;;;;;8.50;7.00;;;;;7.97;78.03;102364.66;4914641;29;11463;-66
2024/01/23 10:54:47;;;;;;;;;4.00;2.25;;;;;7.99;78.51;102357.34;4933211;29;10949;-66
2024/01/23 10:57:24;;;;;;;;;5.25;2.00;;;;;8.03;78.50;102348.88;4925892;29;10889;-67
2024/01/23 10:59:51;;;;;;;;;4.50;4.50;;;;;8.03;77.81;102342.66;4945984;29;10837;-67
2024/01/23 11:02:39;;;;;;;;;6.00;4.00;;;;;7.95;78.31;102338.00;4931773;29;11604;-67
2024/01/23 11:05:06;;;;;;;;;11.50;7.25;;;;;7.90;78.21;102341.09;4931990;29;10846;-67
2024/01/23 11:07:49;;;;;;;;;6.25;4.50;;;;;7.94;78.60;102339.00;4932695;29;10884;-67
2024/01/23 11:10:27;;;;;;;;;5.00;3.25;;;;;7.94;78.68;102328.28;4912644;29;10838;-67
2024/01/23 11:13:06;;;;;;;;;1.50;1.00;;;;;7.97;78.75;102329.81;4914111;29;10818;-67
2024/01/23 11:15:33;;;;;;;;;12.75;10.50;;;;;7.96;78.36;102334.31;4913820;29;10869;-67
2024/01/23 11:18:23;;;;;;;;;5.00;4.50;;;;;7.96;78.08;102323.59;4913558;29;11105;-66
2024/01/23 11:21:05;;;;;;;;;7.25;2.00;;;;;7.99;78.17;102327.84;4913921;29;10780;-67
2024/01/23 11:23:34;;;;;;;;;3.00;2.75;;;;;8.02;78.67;102298.91;4912576;29;11706;-66
2024/01/23 11:26:04;;;;;;;;;5.50;2.75;;;;;7.99;78.43;102315.28;4912675;29;10979;-67
2024/01/23 11:28:36;;;;;;;;;3.00;2.00;;;;;8.04;78.39;102304.97;4918958;29;10810;-67
2024/01/23 11:31:22;;;;;;;;;7.75;6.50;;;;;8.10;78.53;102309.78;4930481;29;10797;-67
2024/01/23 11:33:53;;;;;;;;;8.50;5.00;;;;;8.17;78.46;102310.88;4912542;29;10928;-67
2024/01/23 11:36:23;;;;;;;;;4.00;1.00;;;;;8.21;77.96;102302.56;4896976;29;10740;-67